sensor_id;sensor_type;location;lat;lon;timestamp;temperature;humidity
63899;HTU21D;50070;-32.946;-60.652;2023-04-03T00:00:40;24.64;47.94
63899;HTU21D;50070;-32.946;-60.652;2023-04-03T00:03:07;24.63;47.89
63899;HTU21D;50070;-32.946;-60.652;2023-04-03T00:05:34;24.53;48.28
63899;HTU21D;50070;-32.946;-60.652;2023-04-03T00:08:01;24.51;48.53
63899;HTU21D;50070;-32.946;-60.652;2023-04-03T00:10:28;24.63;48.29
63899;HTU21D;50070;-32.946;-60.652;2023-04-03T00:12:55;24.36;49.07
63899;HTU21D;50070;-32.946;-60.652;2023-04-03T00:15:22;24.47;49.13
63899;HTU21D;50070;-32.946;-60.652;2023-04-03T00:17:49;24.50;49.13
63899;HTU21D;50070;-32.946;-60.652;2023-04-03T00:20:16;24.43;49.11
63899;HTU21D;50070;-32.946;-60.652;2023-04-03T00:22:42;24.39;49.66
63899;HTU21D;50070;-32.946;-60.652;2023-04-03T00:25:15;24.17;50.50
63899;HTU21D;50070;-32.946;-60.652;2023-04-03T00:28:15;24.23;50.39
63899;HTU21D;50070;-32.946;-60.652;2023-04-03T00:31:06;24.38;50.21
63899;HTU21D;50070;-32.946;-60.652;2023-04-03T00:34:11;24.35;50.37
63899;HTU21D;50070;-32.946;-60.652;2023-04-03T00:40:03;24.01;51.85
63899;HTU21D;50070;-32.946;-60.652;2023-04-03T00:42:30;23.91;52.30
63899;HTU21D;50070;-32.946;-60.652;2023-04-03T00:47:27;24.04;52.16
63899;HTU21D;50070;-32.946;-60.652;2023-04-03T00:49:54;24.16;52.05
63899;HTU21D;50070;-32.946;-60.652;2023-04-03T00:52:24;24.11;52.32
63899;HTU21D;50070;-32.946;-60.652;2023-04-03T00:54:54;24.12;52.45
63899;HTU21D;50070;-32.946;-60.652;2023-04-03T00:57:23;24.00;52.48
63899;HTU21D;50070;-32.946;-60.652;2023-04-03T00:59:54;23.94;52.51
63899;HTU21D;50070;-32.946;-60.652;2023-04-03T01:02:22;23.99;52.58
63899;HTU21D;50070;-32.946;-60.652;2023-04-03T01:04:49;23.91;52.49
63899;HTU21D;50070;-32.946;-60.652;2023-04-03T01:07:22;24.00;52.46
63899;HTU21D;50070;-32.946;-60.652;2023-04-03T01:09:55;23.99;52.33
63899;HTU21D;50070;-32.946;-60.652;2023-04-03T01:12:31;23.82;52.88
63899;HTU21D;50070;-32.946;-60.652;2023-04-03T01:15:01;23.90;52.61
63899;HTU21D;50070;-32.946;-60.652;2023-04-03T01:17:36;23.88;52.17
63899;HTU21D;50070;-32.946;-60.652;2023-04-03T01:25:24;23.80;52.46
63899;HTU21D;50070;-32.946;-60.652;2023-04-03T01:27:51;23.83;52.23
63899;HTU21D;50070;-32.946;-60.652;2023-04-03T01:30:21;23.84;52.12
63899;HTU21D;50070;-32.946;-60.652;2023-04-03T01:32:51;23.70;52.26
63899;HTU21D;50070;-32.946;-60.652;2023-04-03T01:38:09;23.62;52.19
63899;HTU21D;50070;-32.946;-60.652;2023-04-03T01:40:50;23.34;53.01
63899;HTU21D;50070;-32.946;-60.652;2023-04-03T01:43:47;23.38;52.70
63899;HTU21D;50070;-32.946;-60.652;2023-04-03T01:46:31;23.22;53.21
63899;HTU21D;50070;-32.946;-60.652;2023-04-03T01:49:12;23.13;53.80
63899;HTU21D;50070;-32.946;-60.652;2023-04-03T01:52:53;23.00;54.07
63899;HTU21D;50070;-32.946;-60.652;2023-04-03T01:55:33;23.02;53.97
63899;HTU21D;50070;-32.946;-60.652;2023-04-03T02:01:51;22.90;54.42
63899;HTU21D;50070;-32.946;-60.652;2023-04-03T02:03:51;22.85;54.49
63899;HTU21D;50070;-32.946;-60.652;2023-04-03T02:06:36;22.96;54.39
63899;HTU21D;50070;-32.946;-60.652;2023-04-03T02:10:08;22.99;53.78
63899;HTU21D;50070;-32.946;-60.652;2023-04-03T02:18:57;23.12;53.57
63899;HTU21D;50070;-32.946;-60.652;2023-04-03T02:22:07;23.22;53.14
63899;HTU21D;50070;-32.946;-60.652;2023-04-03T02:24:51;23.21;52.91
63899;HTU21D;50070;-32.946;-60.652;2023-04-03T02:27:41;23.28;52.98
63899;HTU21D;50070;-32.946;-60.652;2023-04-03T02:30:11;23.28;52.59
63899;HTU21D;50070;-32.946;-60.652;2023-04-03T02:32:42;23.26;52.34
63899;HTU21D;50070;-32.946;-60.652;2023-04-03T02:35:39;23.35;52.33
63899;HTU21D;50070;-32.946;-60.652;2023-04-03T02:38:37;23.25;52.97
63899;HTU21D;50070;-32.946;-60.652;2023-04-03T02:41:29;23.20;53.69
63899;HTU21D;50070;-32.946;-60.652;2023-04-03T02:44:36;23.31;53.20
63899;HTU21D;50070;-32.946;-60.652;2023-04-03T02:47:32;23.17;53.88
63899;HTU21D;50070;-32.946;-60.652;2023-04-03T02:53:24;23.36;53.62
63899;HTU21D;50070;-32.946;-60.652;2023-04-03T02:56:29;23.35;53.52
63899;HTU21D;50070;-32.946;-60.652;2023-04-03T02:59:35;23.34;54.27
63899;HTU21D;50070;-32.946;-60.652;2023-04-03T03:02:28;23.28;54.52
63899;HTU21D;50070;-32.946;-60.652;2023-04-03T03:04:54;23.21;55.08
63899;HTU21D;50070;-32.946;-60.652;2023-04-03T03:07:21;23.38;54.47
63899;HTU21D;50070;-32.946;-60.652;2023-04-03T03:09:48;23.44;53.64
63899;HTU21D;50070;-32.946;-60.652;2023-04-03T03:12:16;23.50;53.94
63899;HTU21D;50070;-32.946;-60.652;2023-04-03T03:14:48;23.43;53.60
63899;HTU21D;50070;-32.946;-60.652;2023-04-03T03:17:15;23.36;53.83
63899;HTU21D;50070;-32.946;-60.652;2023-04-03T03:19:42;23.39;53.96
63899;HTU21D;50070;-32.946;-60.652;2023-04-03T03:22:09;23.56;53.58
63899;HTU21D;50070;-32.946;-60.652;2023-04-03T03:24:36;23.49;53.77
63899;HTU21D;50070;-32.946;-60.652;2023-04-03T03:27:03;23.40;54.27
63899;HTU21D;50070;-32.946;-60.652;2023-04-03T03:29:29;23.50;54.13
63899;HTU21D;50070;-32.946;-60.652;2023-04-03T03:31:56;23.16;55.78
63899;HTU21D;50070;-32.946;-60.652;2023-04-03T03:34:23;23.42;55.05
63899;HTU21D;50070;-32.946;-60.652;2023-04-03T03:36:50;23.39;55.23
63899;HTU21D;50070;-32.946;-60.652;2023-04-03T03:39:17;23.39;55.42
63899;HTU21D;50070;-32.946;-60.652;2023-04-03T03:41:43;23.01;56.85
63899;HTU21D;50070;-32.946;-60.652;2023-04-03T03:44:10;23.22;56.27
63899;HTU21D;50070;-32.946;-60.652;2023-04-03T03:46:37;23.05;56.85
63899;HTU21D;50070;-32.946;-60.652;2023-04-03T03:49:04;23.00;57.00
63899;HTU21D;50070;-32.946;-60.652;2023-04-03T03:51:30;23.05;56.90
63899;HTU21D;50070;-32.946;-60.652;2023-04-03T03:53:57;22.97;57.23
63899;HTU21D;50070;-32.946;-60.652;2023-04-03T03:56:24;22.96;57.63
63899;HTU21D;50070;-32.946;-60.652;2023-04-03T03:58:51;23.02;57.50
63899;HTU21D;50070;-32.946;-60.652;2023-04-03T04:01:18;23.02;57.63
63899;HTU21D;50070;-32.946;-60.652;2023-04-03T04:03:45;22.77;58.65
63899;HTU21D;50070;-32.946;-60.652;2023-04-03T04:06:12;23.06;57.87
63899;HTU21D;50070;-32.946;-60.652;2023-04-03T04:08:39;22.99;57.73
63899;HTU21D;50070;-32.946;-60.652;2023-04-03T04:11:06;22.91;58.14
63899;HTU21D;50070;-32.946;-60.652;2023-04-03T04:13:33;23.05;57.75
63899;HTU21D;50070;-32.946;-60.652;2023-04-03T04:16:00;23.02;57.84
63899;HTU21D;50070;-32.946;-60.652;2023-04-03T04:18:27;22.96;58.29
63899;HTU21D;50070;-32.946;-60.652;2023-04-03T04:20:54;22.90;58.55
63899;HTU21D;50070;-32.946;-60.652;2023-04-03T04:23:21;23.36;57.03
63899;HTU21D;50070;-32.946;-60.652;2023-04-03T04:25:48;23.28;57.32
63899;HTU21D;50070;-32.946;-60.652;2023-04-03T04:28:16;23.27;57.48
63899;HTU21D;50070;-32.946;-60.652;2023-04-03T04:30:43;22.78;59.28
63899;HTU21D;50070;-32.946;-60.652;2023-04-03T04:33:09;23.16;58.09
63899;HTU21D;50070;-32.946;-60.652;2023-04-03T04:35:36;23.23;57.87
63899;HTU21D;50070;-32.946;-60.652;2023-04-03T04:38:03;23.17;58.02
63899;HTU21D;50070;-32.946;-60.652;2023-04-03T04:40:30;23.29;57.29
63899;HTU21D;50070;-32.946;-60.652;2023-04-03T04:42:57;22.82;58.76
63899;HTU21D;50070;-32.946;-60.652;2023-04-03T04:45:24;22.94;58.37
63899;HTU21D;50070;-32.946;-60.652;2023-04-03T04:47:51;22.55;59.90
63899;HTU21D;50070;-32.946;-60.652;2023-04-03T04:50:19;22.72;59.20
63899;HTU21D;50070;-32.946;-60.652;2023-04-03T04:52:45;22.72;59.37
63899;HTU21D;50070;-32.946;-60.652;2023-04-03T04:55:12;22.80;59.16
63899;HTU21D;50070;-32.946;-60.652;2023-04-03T04:57:39;22.49;60.38
63899;HTU21D;50070;-32.946;-60.652;2023-04-03T05:00:06;22.55;60.25
63899;HTU21D;50070;-32.946;-60.652;2023-04-03T05:02:33;22.51;60.60
63899;HTU21D;50070;-32.946;-60.652;2023-04-03T05:05:00;22.25;61.76
63899;HTU21D;50070;-32.946;-60.652;2023-04-03T05:07:27;22.19;62.14
63899;HTU21D;50070;-32.946;-60.652;2023-04-03T05:09:53;22.29;61.81
63899;HTU21D;50070;-32.946;-60.652;2023-04-03T05:12:20;22.29;61.88
63899;HTU21D;50070;-32.946;-60.652;2023-04-03T05:14:47;22.50;61.15
63899;HTU21D;50070;-32.946;-60.652;2023-04-03T05:17:14;22.40;61.56
63899;HTU21D;50070;-32.946;-60.652;2023-04-03T05:19:41;22.25;62.45
63899;HTU21D;50070;-32.946;-60.652;2023-04-03T05:22:08;22.46;61.81
63899;HTU21D;50070;-32.946;-60.652;2023-04-03T05:24:34;22.55;61.33
63899;HTU21D;50070;-32.946;-60.652;2023-04-03T05:27:01;22.46;61.90
63899;HTU21D;50070;-32.946;-60.652;2023-04-03T05:29:28;22.29;62.79
63899;HTU21D;50070;-32.946;-60.652;2023-04-03T05:31:55;22.40;62.85
63899;HTU21D;50070;-32.946;-60.652;2023-04-03T05:34:22;22.36;63.64
63899;HTU21D;50070;-32.946;-60.652;2023-04-03T05:36:48;22.55;63.04
63899;HTU21D;50070;-32.946;-60.652;2023-04-03T05:39:15;22.06;66.22
63899;HTU21D;50070;-32.946;-60.652;2023-04-03T05:41:42;22.26;65.46
63899;HTU21D;50070;-32.946;-60.652;2023-04-03T05:44:09;22.36;65.53
63899;HTU21D;50070;-32.946;-60.652;2023-04-03T05:46:35;22.29;66.24
63899;HTU21D;50070;-32.946;-60.652;2023-04-03T05:49:03;22.58;64.81
63899;HTU21D;50070;-32.946;-60.652;2023-04-03T05:51:35;22.43;65.61
63899;HTU21D;50070;-32.946;-60.652;2023-04-03T05:54:26;22.26;68.00
63899;HTU21D;50070;-32.946;-60.652;2023-04-03T05:56:53;22.26;70.03
63899;HTU21D;50070;-32.946;-60.652;2023-04-03T05:59:21;22.08;71.55
63899;HTU21D;50070;-32.946;-60.652;2023-04-03T06:01:48;22.04;72.10
63899;HTU21D;50070;-32.946;-60.652;2023-04-03T06:04:15;21.81;71.22
63899;HTU21D;50070;-32.946;-60.652;2023-04-03T06:06:53;21.46;71.29
63899;HTU21D;50070;-32.946;-60.652;2023-04-03T06:09:23;21.68;69.90
63899;HTU21D;50070;-32.946;-60.652;2023-04-03T06:11:50;21.73;69.24
63899;HTU21D;50070;-32.946;-60.652;2023-04-03T06:14:17;21.35;70.52
63899;HTU21D;50070;-32.946;-60.652;2023-04-03T06:16:44;21.36;70.66
63899;HTU21D;50070;-32.946;-60.652;2023-04-03T06:19:12;21.27;71.29
63899;HTU21D;50070;-32.946;-60.652;2023-04-03T06:21:39;21.06;72.67
63899;HTU21D;50070;-32.946;-60.652;2023-04-03T06:24:06;21.40;71.36
63899;HTU21D;50070;-32.946;-60.652;2023-04-03T06:26:34;20.90;74.01
63899;HTU21D;50070;-32.946;-60.652;2023-04-03T06:29:01;20.95;73.90
63899;HTU21D;50070;-32.946;-60.652;2023-04-03T06:31:28;21.33;72.33
63899;HTU21D;50070;-32.946;-60.652;2023-04-03T06:33:55;21.40;72.32
63899;HTU21D;50070;-32.946;-60.652;2023-04-03T06:36:22;21.53;72.21
63899;HTU21D;50070;-32.946;-60.652;2023-04-03T06:38:49;21.50;72.25
63899;HTU21D;50070;-32.946;-60.652;2023-04-03T06:41:16;21.36;73.03
63899;HTU21D;50070;-32.946;-60.652;2023-04-03T06:43:44;21.53;71.71
63899;HTU21D;50070;-32.946;-60.652;2023-04-03T06:46:19;21.72;71.09
63899;HTU21D;50070;-32.946;-60.652;2023-04-03T06:48:46;21.32;72.24
63899;HTU21D;50070;-32.946;-60.652;2023-04-03T06:51:24;21.46;71.59
63899;HTU21D;50070;-32.946;-60.652;2023-04-03T06:53:52;21.48;71.61
63899;HTU21D;50070;-32.946;-60.652;2023-04-03T06:56:20;21.64;70.84
63899;HTU21D;50070;-32.946;-60.652;2023-04-03T06:58:47;21.53;71.08
63899;HTU21D;50070;-32.946;-60.652;2023-04-03T07:01:16;21.29;72.36
63899;HTU21D;50070;-32.946;-60.652;2023-04-03T07:03:45;21.33;72.24
63899;HTU21D;50070;-32.946;-60.652;2023-04-03T07:06:15;21.35;72.00
63899;HTU21D;50070;-32.946;-60.652;2023-04-03T07:08:43;21.35;72.04
63899;HTU21D;50070;-32.946;-60.652;2023-04-03T07:11:12;21.30;72.02
63899;HTU21D;50070;-32.946;-60.652;2023-04-03T07:13:39;21.27;72.35
63899;HTU21D;50070;-32.946;-60.652;2023-04-03T07:16:06;21.31;72.09
63899;HTU21D;50070;-32.946;-60.652;2023-04-03T07:18:33;21.21;72.42
63899;HTU21D;50070;-32.946;-60.652;2023-04-03T07:21:00;21.33;72.07
63899;HTU21D;50070;-32.946;-60.652;2023-04-03T07:23:27;21.06;73.28
63899;HTU21D;50070;-32.946;-60.652;2023-04-03T07:25:54;21.02;73.48
63899;HTU21D;50070;-32.946;-60.652;2023-04-03T07:28:22;21.14;72.68
63899;HTU21D;50070;-32.946;-60.652;2023-04-03T07:30:58;21.13;72.87
63899;HTU21D;50070;-32.946;-60.652;2023-04-03T07:33:26;21.06;72.99
63899;HTU21D;50070;-32.946;-60.652;2023-04-03T07:35:53;21.05;73.14
63899;HTU21D;50070;-32.946;-60.652;2023-04-03T07:38:20;20.94;73.34
63899;HTU21D;50070;-32.946;-60.652;2023-04-03T07:40:48;21.04;73.14
63899;HTU21D;50070;-32.946;-60.652;2023-04-03T07:43:16;21.08;73.12
63899;HTU21D;50070;-32.946;-60.652;2023-04-03T07:45:44;21.08;73.25
63899;HTU21D;50070;-32.946;-60.652;2023-04-03T07:48:12;21.19;73.07
63899;HTU21D;50070;-32.946;-60.652;2023-04-03T07:50:43;21.11;73.44
63899;HTU21D;50070;-32.946;-60.652;2023-04-03T07:53:10;20.91;74.59
63899;HTU21D;50070;-32.946;-60.652;2023-04-03T07:55:37;20.94;74.34
63899;HTU21D;50070;-32.946;-60.652;2023-04-03T07:58:18;21.13;73.57
63899;HTU21D;50070;-32.946;-60.652;2023-04-03T08:00:45;21.11;73.70
63899;HTU21D;50070;-32.946;-60.652;2023-04-03T08:03:12;21.09;73.91
63899;HTU21D;50070;-32.946;-60.652;2023-04-03T08:05:44;20.95;74.86
63899;HTU21D;50070;-32.946;-60.652;2023-04-03T08:08:13;21.15;73.98
63899;HTU21D;50070;-32.946;-60.652;2023-04-03T08:10:40;21.20;73.64
63899;HTU21D;50070;-32.946;-60.652;2023-04-03T08:13:08;21.02;74.48
63899;HTU21D;50070;-32.946;-60.652;2023-04-03T08:15:35;21.03;74.30
63899;HTU21D;50070;-32.946;-60.652;2023-04-03T08:18:02;21.10;74.15
63899;HTU21D;50070;-32.946;-60.652;2023-04-03T08:20:29;21.24;73.32
63899;HTU21D;50070;-32.946;-60.652;2023-04-03T08:22:56;21.13;73.76
63899;HTU21D;50070;-32.946;-60.652;2023-04-03T08:25:23;21.09;73.49
63899;HTU21D;50070;-32.946;-60.652;2023-04-03T08:27:50;21.17;73.18
63899;HTU21D;50070;-32.946;-60.652;2023-04-03T08:30:17;21.04;73.63
63899;HTU21D;50070;-32.946;-60.652;2023-04-03T08:32:44;21.05;73.44
63899;HTU21D;50070;-32.946;-60.652;2023-04-03T08:35:11;20.93;73.70
63899;HTU21D;50070;-32.946;-60.652;2023-04-03T08:37:39;21.11;72.65
63899;HTU21D;50070;-32.946;-60.652;2023-04-03T08:40:10;21.07;72.65
63899;HTU21D;50070;-32.946;-60.652;2023-04-03T08:42:58;21.03;72.64
63899;HTU21D;50070;-32.946;-60.652;2023-04-03T08:45:50;21.07;72.51
63899;HTU21D;50070;-32.946;-60.652;2023-04-03T08:50:58;21.04;72.81
63899;HTU21D;50070;-32.946;-60.652;2023-04-03T08:53:26;21.21;72.03
63899;HTU21D;50070;-32.946;-60.652;2023-04-03T08:55:55;21.03;72.72
63899;HTU21D;50070;-32.946;-60.652;2023-04-03T09:03:22;21.07;72.40
63899;HTU21D;50070;-32.946;-60.652;2023-04-03T09:06:00;21.19;71.73
63899;HTU21D;50070;-32.946;-60.652;2023-04-03T09:14:07;20.96;72.60
63899;HTU21D;50070;-32.946;-60.652;2023-04-03T09:21:46;21.02;72.47
63899;HTU21D;50070;-32.946;-60.652;2023-04-03T09:24:15;21.06;72.19
63899;HTU21D;50070;-32.946;-60.652;2023-04-03T09:26:53;20.96;72.92
63899;HTU21D;50070;-32.946;-60.652;2023-04-03T09:29:23;21.06;72.51
63899;HTU21D;50070;-32.946;-60.652;2023-04-03T09:32:00;21.09;72.16
63899;HTU21D;50070;-32.946;-60.652;2023-04-03T09:34:30;21.03;72.42
63899;HTU21D;50070;-32.946;-60.652;2023-04-03T09:37:00;21.03;72.42
63899;HTU21D;50070;-32.946;-60.652;2023-04-03T09:39:48;20.96;72.62
63899;HTU21D;50070;-32.946;-60.652;2023-04-03T09:42:23;20.95;72.67
63899;HTU21D;50070;-32.946;-60.652;2023-04-03T09:44:59;21.10;72.26
63899;HTU21D;50070;-32.946;-60.652;2023-04-03T09:47:27;20.90;73.17
63899;HTU21D;50070;-32.946;-60.652;2023-04-03T09:50:20;20.95;72.33
63899;HTU21D;50070;-32.946;-60.652;2023-04-03T09:52:49;21.00;72.45
63899;HTU21D;50070;-32.946;-60.652;2023-04-03T09:55:25;21.09;71.87
63899;HTU21D;50070;-32.946;-60.652;2023-04-03T09:57:59;21.04;72.14
63899;HTU21D;50070;-32.946;-60.652;2023-04-03T10:00:37;21.01;72.25
63899;HTU21D;50070;-32.946;-60.652;2023-04-03T10:03:08;21.07;71.95
63899;HTU21D;50070;-32.946;-60.652;2023-04-03T10:05:48;20.94;72.58
63899;HTU21D;50070;-32.946;-60.652;2023-04-03T10:08:23;21.01;72.41
63899;HTU21D;50070;-32.946;-60.652;2023-04-03T10:13:33;21.02;72.17
63899;HTU21D;50070;-32.946;-60.652;2023-04-03T10:16:09;20.92;72.59
63899;HTU21D;50070;-32.946;-60.652;2023-04-03T10:32:43;20.90;72.99
63899;HTU21D;50070;-32.946;-60.652;2023-04-03T10:35:37;20.91;72.94
63899;HTU21D;50070;-32.946;-60.652;2023-04-03T10:51:55;20.91;73.33
63899;HTU21D;50070;-32.946;-60.652;2023-04-03T10:56:54;20.96;73.21
63899;HTU21D;50070;-32.946;-60.652;2023-04-03T10:59:30;20.83;73.79
63899;HTU21D;50070;-32.946;-60.652;2023-04-03T11:02:05;20.86;73.53
63899;HTU21D;50070;-32.946;-60.652;2023-04-03T11:04:39;20.83;73.27
63899;HTU21D;50070;-32.946;-60.652;2023-04-03T11:07:22;20.72;73.83
63899;HTU21D;50070;-32.946;-60.652;2023-04-03T11:09:55;20.58;74.57
63899;HTU21D;50070;-32.946;-60.652;2023-04-03T11:12:38;20.59;74.62
63899;HTU21D;50070;-32.946;-60.652;2023-04-03T11:15:16;20.77;73.67
63899;HTU21D;50070;-32.946;-60.652;2023-04-03T11:17:59;20.66;74.08
63899;HTU21D;50070;-32.946;-60.652;2023-04-03T11:20:30;20.60;74.35
63899;HTU21D;50070;-32.946;-60.652;2023-04-03T11:23:00;20.55;74.58
63899;HTU21D;50070;-32.946;-60.652;2023-04-03T11:25:31;20.66;73.98
63899;HTU21D;50070;-32.946;-60.652;2023-04-03T11:27:59;20.74;73.53
63899;HTU21D;50070;-32.946;-60.652;2023-04-03T11:30:38;20.92;72.80
63899;HTU21D;50070;-32.946;-60.652;2023-04-03T11:33:37;21.00;72.78
63899;HTU21D;50070;-32.946;-60.652;2023-04-03T11:36:10;20.85;73.23
63899;HTU21D;50070;-32.946;-60.652;2023-04-03T11:38:42;21.04;72.37
63899;HTU21D;50070;-32.946;-60.652;2023-04-03T11:41:11;20.99;72.32
63899;HTU21D;50070;-32.946;-60.652;2023-04-03T11:44:06;21.18;71.61
63899;HTU21D;50070;-32.946;-60.652;2023-04-03T11:46:57;21.01;72.38
63899;HTU21D;50070;-32.946;-60.652;2023-04-03T11:49:50;21.07;71.92
63899;HTU21D;50070;-32.946;-60.652;2023-04-03T12:08:58;21.21;72.42
63899;HTU21D;50070;-32.946;-60.652;2023-04-03T12:11:32;21.24;72.41
63899;HTU21D;50070;-32.946;-60.652;2023-04-03T12:40:51;21.50;72.04
63899;HTU21D;50070;-32.946;-60.652;2023-04-03T12:46:45;21.08;74.74
63899;HTU21D;50070;-32.946;-60.652;2023-04-03T12:51:57;21.44;75.50
63899;HTU21D;50070;-32.946;-60.652;2023-04-03T12:54:45;21.34;76.37
63899;HTU21D;50070;-32.946;-60.652;2023-04-03T12:57:26;20.91;77.74
63899;HTU21D;50070;-32.946;-60.652;2023-04-03T12:59:54;20.96;78.05
63899;HTU21D;50070;-32.946;-60.652;2023-04-03T13:02:26;21.04;78.75
63899;HTU21D;50070;-32.946;-60.652;2023-04-03T13:04:55;21.07;79.24
63899;HTU21D;50070;-32.946;-60.652;2023-04-03T13:07:34;20.84;79.14
63899;HTU21D;50070;-32.946;-60.652;2023-04-03T13:12:57;21.01;79.62
63899;HTU21D;50070;-32.946;-60.652;2023-04-03T13:15:30;21.06;79.18
63899;HTU21D;50070;-32.946;-60.652;2023-04-03T13:18:22;20.45;80.79
63899;HTU21D;50070;-32.946;-60.652;2023-04-03T13:20:49;20.53;81.47
63899;HTU21D;50070;-32.946;-60.652;2023-04-03T13:23:17;20.25;82.41
63899;HTU21D;50070;-32.946;-60.652;2023-04-03T13:25:47;20.44;82.64
63899;HTU21D;50070;-32.946;-60.652;2023-04-03T13:28:20;20.60;83.93
63899;HTU21D;50070;-32.946;-60.652;2023-04-03T13:33:57;20.33;82.57
63899;HTU21D;50070;-32.946;-60.652;2023-04-03T13:36:30;20.33;82.87
63899;HTU21D;50070;-32.946;-60.652;2023-04-03T13:41:46;20.72;84.63
63899;HTU21D;50070;-32.946;-60.652;2023-04-03T13:46:45;20.77;83.20
63899;HTU21D;50070;-32.946;-60.652;2023-04-03T13:51:46;20.81;83.81
63899;HTU21D;50070;-32.946;-60.652;2023-04-03T13:54:31;20.85;81.78
63899;HTU21D;50070;-32.946;-60.652;2023-04-03T13:56:59;20.83;83.40
63899;HTU21D;50070;-32.946;-60.652;2023-04-03T13:59:34;20.79;83.52
63899;HTU21D;50070;-32.946;-60.652;2023-04-03T14:04:45;20.68;83.33
63899;HTU21D;50070;-32.946;-60.652;2023-04-03T14:07:13;20.77;82.79
63899;HTU21D;50070;-32.946;-60.652;2023-04-03T14:09:40;20.87;83.69
63899;HTU21D;50070;-32.946;-60.652;2023-04-03T14:14:45;20.61;82.09
63899;HTU21D;50070;-32.946;-60.652;2023-04-03T14:17:24;21.05;83.49
63899;HTU21D;50070;-32.946;-60.652;2023-04-03T14:19:53;21.40;82.16
63899;HTU21D;50070;-32.946;-60.652;2023-04-03T14:22:24;21.58;82.00
63899;HTU21D;50070;-32.946;-60.652;2023-04-03T14:24:52;21.38;80.59
63899;HTU21D;50070;-32.946;-60.652;2023-04-03T14:27:28;21.32;81.39
63899;HTU21D;50070;-32.946;-60.652;2023-04-03T14:29:57;20.95;80.95
63899;HTU21D;50070;-32.946;-60.652;2023-04-03T14:32:26;20.70;81.46
63899;HTU21D;50070;-32.946;-60.652;2023-04-03T14:34:53;20.65;82.33
63899;HTU21D;50070;-32.946;-60.652;2023-04-03T14:37:24;20.55;84.15
63899;HTU21D;50070;-32.946;-60.652;2023-04-03T14:39:52;20.81;82.09
63899;HTU21D;50070;-32.946;-60.652;2023-04-03T14:42:30;20.83;80.92
63899;HTU21D;50070;-32.946;-60.652;2023-04-03T14:44:59;20.95;80.92
63899;HTU21D;50070;-32.946;-60.652;2023-04-03T14:47:28;21.09;79.46
63899;HTU21D;50070;-32.946;-60.652;2023-04-03T14:49:55;20.95;79.50
63899;HTU21D;50070;-32.946;-60.652;2023-04-03T14:52:26;20.96;79.39
63899;HTU21D;50070;-32.946;-60.652;2023-04-03T14:54:53;21.17;79.63
63899;HTU21D;50070;-32.946;-60.652;2023-04-03T14:57:23;21.23;78.89
63899;HTU21D;50070;-32.946;-60.652;2023-04-03T14:59:51;21.45;79.50
63899;HTU21D;50070;-32.946;-60.652;2023-04-03T15:02:32;21.89;78.35
63899;HTU21D;50070;-32.946;-60.652;2023-04-03T15:05:00;21.65;77.56
63899;HTU21D;50070;-32.946;-60.652;2023-04-03T15:07:33;21.70;76.69
63899;HTU21D;50070;-32.946;-60.652;2023-04-03T15:10:29;21.78;74.83
63899;HTU21D;50070;-32.946;-60.652;2023-04-03T15:12:57;21.72;74.42
63899;HTU21D;50070;-32.946;-60.652;2023-04-03T15:15:24;21.49;73.72
63899;HTU21D;50070;-32.946;-60.652;2023-04-03T15:17:55;21.46;74.89
63899;HTU21D;50070;-32.946;-60.652;2023-04-03T15:20:25;21.54;75.06
63899;HTU21D;50070;-32.946;-60.652;2023-04-03T15:22:53;21.50;76.15
63899;HTU21D;50070;-32.946;-60.652;2023-04-03T15:25:22;21.62;74.49
63899;HTU21D;50070;-32.946;-60.652;2023-04-03T15:27:49;21.40;74.45
63899;HTU21D;50070;-32.946;-60.652;2023-04-03T15:30:17;21.73;74.66
63899;HTU21D;50070;-32.946;-60.652;2023-04-03T15:32:44;21.52;73.39
63899;HTU21D;50070;-32.946;-60.652;2023-04-03T15:35:12;21.72;72.06
63899;HTU21D;50070;-32.946;-60.652;2023-04-03T15:37:38;21.88;71.42
63899;HTU21D;50070;-32.946;-60.652;2023-04-03T15:40:06;21.85;70.81
63899;HTU21D;50070;-32.946;-60.652;2023-04-03T15:42:33;21.52;72.36
63899;HTU21D;50070;-32.946;-60.652;2023-04-03T15:45:00;21.30;73.13
63899;HTU21D;50070;-32.946;-60.652;2023-04-03T15:47:30;21.42;73.41
63899;HTU21D;50070;-32.946;-60.652;2023-04-03T15:49:57;21.39;73.67
63899;HTU21D;50070;-32.946;-60.652;2023-04-03T15:52:24;21.46;73.75
63899;HTU21D;50070;-32.946;-60.652;2023-04-03T15:54:51;21.21;74.98
63899;HTU21D;50070;-32.946;-60.652;2023-04-03T15:57:17;21.36;74.76
63899;HTU21D;50070;-32.946;-60.652;2023-04-03T15:59:44;21.50;74.27
63899;HTU21D;50070;-32.946;-60.652;2023-04-03T16:02:13;21.58;74.69
63899;HTU21D;50070;-32.946;-60.652;2023-04-03T16:04:40;21.42;75.41
63899;HTU21D;50070;-32.946;-60.652;2023-04-03T16:07:07;21.47;75.62
63899;HTU21D;50070;-32.946;-60.652;2023-04-03T16:09:35;21.34;76.45
63899;HTU21D;50070;-32.946;-60.652;2023-04-03T16:12:02;21.36;76.63
63899;HTU21D;50070;-32.946;-60.652;2023-04-03T16:14:29;21.43;76.44
63899;HTU21D;50070;-32.946;-60.652;2023-04-03T16:16:58;21.32;77.19
63899;HTU21D;50070;-32.946;-60.652;2023-04-03T16:19:25;21.30;77.63
63899;HTU21D;50070;-32.946;-60.652;2023-04-03T16:21:54;21.31;77.72
63899;HTU21D;50070;-32.946;-60.652;2023-04-03T16:24:21;21.38;77.39
63899;HTU21D;50070;-32.946;-60.652;2023-04-03T16:26:48;21.29;78.06
63899;HTU21D;50070;-32.946;-60.652;2023-04-03T16:29:15;21.22;78.14
63899;HTU21D;50070;-32.946;-60.652;2023-04-03T16:31:41;21.52;77.42
63899;HTU21D;50070;-32.946;-60.652;2023-04-03T16:34:08;21.49;77.88
63899;HTU21D;50070;-32.946;-60.652;2023-04-03T16:36:34;21.53;76.99
63899;HTU21D;50070;-32.946;-60.652;2023-04-03T16:39:03;21.64;77.43
63899;HTU21D;50070;-32.946;-60.652;2023-04-03T16:41:32;21.52;76.89
63899;HTU21D;50070;-32.946;-60.652;2023-04-03T16:43:59;21.73;76.75
63899;HTU21D;50070;-32.946;-60.652;2023-04-03T16:46:26;21.75;77.17
63899;HTU21D;50070;-32.946;-60.652;2023-04-03T16:48:53;21.97;75.43
63899;HTU21D;50070;-32.946;-60.652;2023-04-03T16:51:20;21.81;75.63
63899;HTU21D;50070;-32.946;-60.652;2023-04-03T16:53:46;21.80;75.67
63899;HTU21D;50070;-32.946;-60.652;2023-04-03T16:56:13;21.59;76.47
63899;HTU21D;50070;-32.946;-60.652;2023-04-03T16:58:40;21.81;75.83
63899;HTU21D;50070;-32.946;-60.652;2023-04-03T17:01:16;21.72;75.19
63899;HTU21D;50070;-32.946;-60.652;2023-04-03T17:03:43;21.95;74.54
63899;HTU21D;50070;-32.946;-60.652;2023-04-03T17:06:12;21.68;75.79
63899;HTU21D;50070;-32.946;-60.652;2023-04-03T17:08:43;22.12;74.15
63899;HTU21D;50070;-32.946;-60.652;2023-04-03T17:11:10;22.19;73.46
63899;HTU21D;50070;-32.946;-60.652;2023-04-03T17:13:51;22.13;73.78
63899;HTU21D;50070;-32.946;-60.652;2023-04-03T17:18:49;22.16;74.39
63899;HTU21D;50070;-32.946;-60.652;2023-04-03T17:21:20;22.27;73.62
63899;HTU21D;50070;-32.946;-60.652;2023-04-03T17:27:06;22.08;72.82
63899;HTU21D;50070;-32.946;-60.652;2023-04-03T17:29:38;21.90;73.85
63899;HTU21D;50070;-32.946;-60.652;2023-04-03T17:32:11;21.89;74.12
63899;HTU21D;50070;-32.946;-60.652;2023-04-03T17:35:15;21.87;74.71